KHZE

Mercer County Regional Airport

Hazen, North Dakota, USA
METAR KHZE 231455Z AUTO 07006KT 9SM FEW120 20/16 A2992 RMK AO2 TSNO
Observed Flight Rules
May-23 @ 14:55 UTC (13 minutes ago) Visual Flight Rules
Wind Visibility Clouds
70° at 6 knots 9 miles
  • Few at 12,000' AGL
Temperatures Readings
Current 20°C / 68°F
Dewpoint 16°C / 61°F
Humidity 78%
Altimeter 29.92" Hg
Pressure 1013 hPa
Elevation 553
METAR KHZE 231455Z AUTO 07006KT 9SM FEW120 20/16 A2992 RMK AO2 TSNO
Observed Flight Rules
May-23 @ 14:55 UTC
(13 minutes ago)
VFR
Wind Visibility
70° at 6 knots 9 miles
Clouds
  • Few at 12,000' AGL
Temperature Dewpoint
20°C / 68°F 16°C / 61°F
Humidity Altimeter Pressure
78% 29.92" Hg 1013 hPa